Time;durP1;ratioP1;P1;durP2;ratioP2;P2;SDS_P1;SDS_P2;PMS_P1;PMS_P2;Temp;Humidity;BMP_temperature;BMP_pressure;BME280_temperature;BME280_humidity;BME280_pressure;Samples;Min_cycle;Max_cycle;Signal;HPM_P1;HPM_P2
2022/04/27 00:01:29;;;;;;;6.18;3.40;;;;;;;;;;4993815;28;20140;-64
2022/04/27 00:03:54;;;;;;;6.72;3.20;;;;;;;;;;5002856;28;20109;-66
2022/04/27 00:06:20;;;;;;;7.30;2.97;;;;;;;;;;5002338;28;20737;-65
2022/04/27 00:08:45;;;;;;;5.20;2.80;;;;;;;;;;5002149;28;20433;-65
2022/04/27 00:11:14;;;;;;;8.80;3.13;;;;;;;;;;5002289;28;20063;-65
2022/04/27 00:13:39;;;;;;;5.00;2.80;;;;;;;;;;5002598;28;20029;-66
2022/04/27 00:16:09;;;;;;;6.18;3.20;;;;;;;;;;5002065;28;20548;-64
2022/04/27 00:18:34;;;;;;;7.68;3.30;;;;;;;;;;5002531;28;20344;-65
2022/04/27 00:21:02;;;;;;;6.32;2.92;;;;;;;;;;5001515;28;20341;-67
2022/04/27 00:23:30;;;;;;;7.38;3.33;;;;;;;;;;5003979;28;20138;-66
2022/04/27 00:25:55;;;;;;;7.90;4.25;;;;;;;;;;5004003;28;20099;-66
2022/04/27 00:28:20;;;;;;;7.40;3.40;;;;;;;;;;5006211;28;20475;-66
2022/04/27 00:30:48;;;;;;;7.15;3.60;;;;;;;;;;5015809;28;20721;-66
2022/04/27 00:33:19;;;;;;;10.00;3.72;;;;;;;;;;5004149;28;20437;-67
2022/04/27 00:35:44;;;;;;;4.65;3.42;;;;;;;;;;5006349;28;20364;-66
2022/04/27 00:38:09;;;;;;;5.53;3.22;;;;;;;;;;5003844;28;20567;-66
2022/04/27 00:40:35;;;;;;;6.10;3.22;;;;;;;;;;5006360;28;20110;-66
2022/04/27 00:43:00;;;;;;;7.80;3.28;;;;;;;;;;5005663;28;20025;-67
2022/04/27 00:45:28;;;;;;;8.43;3.58;;;;;;;;;;5005657;28;20039;-66
2022/04/27 00:47:56;;;;;;;7.93;3.92;;;;;;;;;;5005390;28;20582;-67
2022/04/27 00:50:23;;;;;;;6.05;3.67;;;;;;;;;;5004706;28;20106;-67
2022/04/27 00:52:51;;;;;;;10.48;3.60;;;;;;;;;;5003869;28;20052;-67
2022/04/27 00:55:17;;;;;;;5.00;3.45;;;;;;;;;;5003594;28;20540;-65
2022/04/27 00:57:46;;;;;;;8.52;3.65;;;;;;;;;;5005767;28;20032;-65
2022/04/27 01:00:12;;;;;;;6.78;3.78;;;;;;;;;;5003283;28;20354;-65
2022/04/27 01:02:37;;;;;;;6.88;3.30;;;;;;;;;;5006202;28;20497;-65
2022/04/27 01:05:07;;;;;;;7.45;3.28;;;;;;;;;;5005324;28;20048;-64
2022/04/27 01:07:33;;;;;;;7.63;3.40;;;;;;;;;;5019784;28;20067;-65
2022/04/27 01:09:58;;;;;;;5.70;3.10;;;;;;;;;;5005046;28;20270;-65
2022/04/27 01:12:24;;;;;;;8.13;3.33;;;;;;;;;;5005971;28;20267;-64
2022/04/27 01:14:49;;;;;;;7.78;2.95;;;;;;;;;;5005342;28;20381;-64
2022/04/27 01:17:14;;;;;;;8.25;3.10;;;;;;;;;;5006955;28;20033;-67
2022/04/27 01:19:40;;;;;;;8.88;3.10;;;;;;;;;;5002906;28;20090;-65
2022/04/27 01:22:05;;;;;;;6.90;3.60;;;;;;;;;;5004689;28;20236;-65
2022/04/27 01:24:31;;;;;;;6.32;3.00;;;;;;;;;;5004926;28;20619;-64
2022/04/27 01:26:57;;;;;;;8.43;3.03;;;;;;;;;;5005230;28;20445;-65
2022/04/27 01:29:25;;;;;;;8.55;2.80;;;;;;;;;;5005600;28;20120;-65
2022/04/27 01:31:52;;;;;;;5.45;2.83;;;;;;;;;;5004956;28;20040;-65
2022/04/27 01:34:18;;;;;;;11.57;3.15;;;;;;;;;;5003830;28;20045;-64
2022/04/27 01:36:43;;;;;;;6.63;2.97;;;;;;;;;;5005166;28;20048;-63
2022/04/27 01:39:09;;;;;;;4.63;2.72;;;;;;;;;;5008278;28;20024;-63
2022/04/27 01:41:34;;;;;;;7.18;3.03;;;;;;;;;;5004678;28;20494;-63
2022/04/27 01:44:00;;;;;;;9.00;2.67;;;;;;;;;;5004242;28;20371;-63
2022/04/27 01:46:26;;;;;;;6.95;2.72;;;;;;;;;;5002869;28;20151;-63
2022/04/27 01:48:51;;;;;;;7.65;3.10;;;;;;;;;;5004789;28;20746;-64
2022/04/27 01:51:18;;;;;;;8.88;2.67;;;;;;;;;;5002587;28;20040;-63
2022/04/27 01:56:27;;;;;;;7.25;2.80;;;;;;;;;;5004463;28;20160;-64
2022/04/27 01:58:54;;;;;;;9.05;3.22;;;;;;;;;;4986763;28;20047;-64
2022/04/27 02:01:21;;;;;;;7.47;2.97;;;;;;;;;;5019374;28;20028;-64
2022/04/27 02:03:47;;;;;;;6.65;2.80;;;;;;;;;;5002568;28;20591;-64
2022/04/27 02:06:13;;;;;;;13.68;3.03;;;;;;;;;;5018295;28;20379;-64
2022/04/27 02:08:40;;;;;;;7.70;2.70;;;;;;;;;;5019366;28;20025;-64
2022/04/27 02:11:06;;;;;;;8.48;3.03;;;;;;;;;;5004184;28;20079;-64
2022/04/27 02:13:34;;;;;;;9.43;2.80;;;;;;;;;;5004980;28;20127;-64
2022/04/27 02:16:00;;;;;;;7.30;3.40;;;;;;;;;;5003574;28;20487;-64
2022/04/27 02:18:26;;;;;;;9.93;2.95;;;;;;;;;;5003332;28;20238;-64
2022/04/27 02:20:51;;;;;;;6.32;2.75;;;;;;;;;;5003078;28;20421;-64
2022/04/27 02:23:19;;;;;;;10.80;3.25;;;;;;;;;;5002809;28;20039;-64
2022/04/27 02:25:47;;;;;;;6.50;3.17;;;;;;;;;;5004043;28;20534;-63
2022/04/27 02:28:12;;;;;;;7.38;2.35;;;;;;;;;;5002358;28;20033;-64
2022/04/27 02:30:38;;;;;;;10.35;2.88;;;;;;;;;;5002017;28;20036;-63
2022/04/27 02:33:03;;;;;;;5.40;2.67;;;;;;;;;;5003436;28;20199;-64
2022/04/27 02:35:28;;;;;;;6.72;2.58;;;;;;;;;;5002927;28;20033;-64
2022/04/27 02:37:54;;;;;;;9.70;2.60;;;;;;;;;;5002100;28;20084;-64
2022/04/27 02:40:19;;;;;;;6.80;2.70;;;;;;;;;;5002057;28;20549;-64
2022/04/27 02:42:44;;;;;;;8.40;2.75;;;;;;;;;;5003687;28;20057;-62
2022/04/27 02:45:09;;;;;;;8.35;2.80;;;;;;;;;;5013280;28;20043;-64
2022/04/27 02:47:35;;;;;;;7.07;2.50;;;;;;;;;;5003729;28;20064;-64
2022/04/27 02:52:46;;;;;;;6.35;2.70;;;;;;;;;;5004226;28;20060;-66
2022/04/27 02:55:11;;;;;;;5.70;2.70;;;;;;;;;;5001589;28;20367;-65
2022/04/27 02:57:37;;;;;;;9.25;3.53;;;;;;;;;;5003795;28;20560;-65
2022/04/27 03:00:03;;;;;;;6.47;2.53;;;;;;;;;;5003446;28;20843;-65
2022/04/27 03:02:29;;;;;;;6.25;2.83;;;;;;;;;;5003136;28;20594;-65
2022/04/27 03:04:54;;;;;;;7.70;3.20;;;;;;;;;;5017461;28;20323;-65
2022/04/27 03:07:20;;;;;;;6.38;2.92;;;;;;;;;;5003312;28;20360;-66
2022/04/27 03:09:47;;;;;;;10.18;3.30;;;;;;;;;;5003395;28;20150;-66
2022/04/27 03:12:12;;;;;;;7.38;2.90;;;;;;;;;;5001253;28;20480;-66
2022/04/27 03:14:38;;;;;;;10.48;3.00;;;;;;;;;;5003209;28;20040;-66
2022/04/27 03:17:03;;;;;;;10.90;2.85;;;;;;;;;;5003053;28;20136;-65
2022/04/27 03:19:29;;;;;;;11.35;3.05;;;;;;;;;;5002610;28;20072;-66
2022/04/27 03:21:56;;;;;;;8.95;2.95;;;;;;;;;;5001379;28;20099;-66
2022/04/27 03:24:24;;;;;;;6.25;3.03;;;;;;;;;;5017812;28;20115;-66
2022/04/27 03:26:50;;;;;;;5.88;2.70;;;;;;;;;;5002702;28;20025;-66
2022/04/27 03:29:18;;;;;;;9.07;2.70;;;;;;;;;;5002973;28;20366;-66
2022/04/27 03:31:44;;;;;;;8.80;3.00;;;;;;;;;;5002571;28;20047;-64
2022/04/27 03:34:11;;;;;;;7.00;2.83;;;;;;;;;;5002434;28;20697;-64
2022/04/27 03:36:36;;;;;;;7.50;3.08;;;;;;;;;;5000419;28;21901;-64
2022/04/27 03:39:02;;;;;;;9.35;2.83;;;;;;;;;;5011935;28;20024;-64
2022/04/27 03:41:28;;;;;;;8.23;3.35;;;;;;;;;;5003352;28;20068;-63
2022/04/27 03:43:53;;;;;;;7.30;3.00;;;;;;;;;;5012392;28;20048;-63
2022/04/27 03:46:19;;;;;;;8.93;2.95;;;;;;;;;;5002279;28;20048;-64
2022/04/27 03:48:45;;;;;;;7.60;3.10;;;;;;;;;;5002583;28;20293;-63
2022/04/27 03:51:10;;;;;;;8.23;2.75;;;;;;;;;;5017528;28;20041;-64
2022/04/27 03:53:35;;;;;;;7.20;2.88;;;;;;;;;;5005570;28;20704;-64
2022/04/27 03:56:05;;;;;;;8.02;2.80;;;;;;;;;;5002642;28;20537;-64
2022/04/27 03:58:33;;;;;;;5.82;2.53;;;;;;;;;;5001917;28;20375;-65
2022/04/27 04:00:58;;;;;;;5.35;2.55;;;;;;;;;;5000454;28;20653;-65
2022/04/27 04:03:23;;;;;;;7.50;2.50;;;;;;;;;;5003429;28;20036;-64
2022/04/27 04:05:49;;;;;;;9.93;2.60;;;;;;;;;;5001802;28;20035;-65
2022/04/27 04:08:15;;;;;;;5.53;2.55;;;;;;;;;;4992797;28;20056;-65
2022/04/27 04:10:40;;;;;;;6.28;2.33;;;;;;;;;;5001950;28;20055;-65
2022/04/27 04:13:06;;;;;;;7.50;2.35;;;;;;;;;;5002339;28;20029;-65
2022/04/27 04:15:32;;;;;;;8.23;2.50;;;;;;;;;;5002030;28;20041;-64
2022/04/27 04:17:57;;;;;;;9.05;2.50;;;;;;;;;;5002315;28;20416;-65
2022/04/27 04:20:23;;;;;;;6.47;2.47;;;;;;;;;;5001789;28;20113;-65
2022/04/27 04:22:51;;;;;;;6.93;2.85;;;;;;;;;;5016703;28;20029;-66
2022/04/27 04:30:47;;;;;;;11.00;3.00;;;;;;;;;;5010629;28;20041;-65
2022/04/27 04:33:13;;;;;;;8.68;2.70;;;;;;;;;;5002038;28;20254;-65
2022/04/27 04:35:40;;;;;;;9.70;2.63;;;;;;;;;;5000657;28;20707;-65
2022/04/27 04:38:06;;;;;;;6.90;2.80;;;;;;;;;;5001569;28;20033;-65
2022/04/27 04:40:36;;;;;;;9.45;2.90;;;;;;;;;;5001363;28;20689;-65
2022/04/27 04:43:01;;;;;;;6.80;2.80;;;;;;;;;;5001354;28;20053;-65
2022/04/27 04:45:29;;;;;;;6.82;2.67;;;;;;;;;;5001395;28;20374;-65
2022/04/27 04:47:56;;;;;;;6.13;2.45;;;;;;;;;;4999244;28;20525;-65
2022/04/27 04:50:22;;;;;;;8.32;2.88;;;;;;;;;;5002072;28;20489;-65
2022/04/27 04:52:47;;;;;;;9.45;2.60;;;;;;;;;;5001532;28;20428;-65
2022/04/27 04:55:17;;;;;;;8.50;2.35;;;;;;;;;;5001723;28;20404;-65
2022/04/27 04:57:42;;;;;;;9.40;2.92;;;;;;;;;;5001869;28;20060;-65
2022/04/27 05:00:09;;;;;;;9.18;2.50;;;;;;;;;;5001061;28;20365;-66
2022/04/27 05:02:34;;;;;;;6.13;2.88;;;;;;;;;;5002212;28;20285;-65
2022/04/27 05:05:02;;;;;;;8.43;2.60;;;;;;;;;;5001111;28;20373;-65
2022/04/27 05:07:29;;;;;;;7.05;2.35;;;;;;;;;;5001572;28;20101;-65
2022/04/27 05:09:55;;;;;;;6.13;2.50;;;;;;;;;;5005004;28;20448;-64
2022/04/27 05:12:20;;;;;;;7.43;2.38;;;;;;;;;;5005016;28;20060;-65
2022/04/27 05:14:45;;;;;;;6.53;2.20;;;;;;;;;;5007230;28;20040;-64
2022/04/27 05:17:11;;;;;;;6.32;2.97;;;;;;;;;;5005644;28;20495;-65
2022/04/27 05:19:37;;;;;;;5.13;2.10;;;;;;;;;;5004285;28;20486;-65
2022/04/27 05:22:02;;;;;;;5.95;2.50;;;;;;;;;;5019489;28;20040;-67
2022/04/27 05:24:29;;;;;;;4.93;2.22;;;;;;;;;;5004735;28;20029;-67
2022/04/27 05:26:57;;;;;;;5.78;2.22;;;;;;;;;;5004461;28;20443;-67
2022/04/27 05:32:07;;;;;;;4.03;2.00;;;;;;;;;;5004229;28;20562;-66
2022/04/27 05:34:35;;;;;;;5.60;2.13;;;;;;;;;;5003161;28;20546;-66
2022/04/27 05:37:00;;;;;;;6.53;2.30;;;;;;;;;;5004156;28;20028;-66
2022/04/27 05:39:26;;;;;;;7.38;2.58;;;;;;;;;;5002378;28;20067;-66
2022/04/27 05:41:51;;;;;;;8.50;2.30;;;;;;;;;;5003949;28;20332;-66
2022/04/27 05:44:22;;;;;;;7.75;2.25;;;;;;;;;;5003315;28;20032;-66
2022/04/27 05:46:53;;;;;;;4.85;2.13;;;;;;;;;;5003939;28;20131;-66
2022/04/27 05:49:19;;;;;;;6.60;2.70;;;;;;;;;;5003963;28;20447;-67
2022/04/27 05:51:44;;;;;;;5.25;2.10;;;;;;;;;;5004426;28;20283;-66
2022/04/27 05:54:10;;;;;;;5.35;2.35;;;;;;;;;;5001808;28;20111;-66
2022/04/27 05:56:36;;;;;;;6.88;2.38;;;;;;;;;;5004009;28;20079;-66
2022/04/27 05:59:04;;;;;;;5.65;2.72;;;;;;;;;;5003971;28;20632;-66
2022/04/27 06:01:29;;;;;;;7.57;2.40;;;;;;;;;;5018302;28;20044;-66
2022/04/27 06:03:55;;;;;;;6.78;1.80;;;;;;;;;;5018067;28;20029;-67
2022/04/27 06:06:26;;;;;;;9.70;2.22;;;;;;;;;;5003749;28;20708;-67
2022/04/27 06:08:52;;;;;;;7.40;2.00;;;;;;;;;;4985124;28;20040;-68
2022/04/27 06:11:19;;;;;;;8.25;2.40;;;;;;;;;;5003459;28;20029;-67
2022/04/27 06:13:47;;;;;;;6.22;2.17;;;;;;;;;;5001942;28;20036;-67
2022/04/27 06:16:13;;;;;;;5.20;2.17;;;;;;;;;;5003581;28;20079;-67
2022/04/27 06:18:45;;;;;;;7.28;2.00;;;;;;;;;;5002452;28;20071;-68
2022/04/27 06:21:11;;;;;;;6.30;2.20;;;;;;;;;;5002016;28;20014;-67
2022/04/27 06:23:37;;;;;;;10.38;2.72;;;;;;;;;;5004295;28;20314;-66
2022/04/27 06:26:04;;;;;;;9.00;2.72;;;;;;;;;;5002781;28;20150;-66
2022/04/27 06:28:31;;;;;;;8.50;2.55;;;;;;;;;;5003215;28;20455;-66
2022/04/27 06:30:56;;;;;;;6.40;2.30;;;;;;;;;;5002773;28;20101;-66
2022/04/27 06:33:22;;;;;;;6.50;2.53;;;;;;;;;;5001255;28;20536;-68
2022/04/27 06:35:48;;;;;;;9.50;2.45;;;;;;;;;;5000689;28;20302;-68
2022/04/27 06:38:15;;;;;;;7.88;2.53;;;;;;;;;;5002730;28;20027;-65
2022/04/27 06:40:40;;;;;;;10.20;2.70;;;;;;;;;;5001432;28;20572;-65
2022/04/27 06:43:07;;;;;;;9.20;2.72;;;;;;;;;;5000396;28;20357;-65
2022/04/27 06:45:36;;;;;;;6.95;2.75;;;;;;;;;;5003278;28;20132;-65
2022/04/27 06:48:02;;;;;;;9.10;2.90;;;;;;;;;;5002229;28;20537;-66
2022/04/27 06:50:30;;;;;;;14.13;2.60;;;;;;;;;;5002929;28;20036;-67
2022/04/27 06:52:59;;;;;;;13.75;3.25;;;;;;;;;;5004136;28;22251;-67
2022/04/27 06:55:24;;;;;;;9.80;3.28;;;;;;;;;;5002470;28;20033;-67
2022/04/27 06:57:50;;;;;;;12.25;3.22;;;;;;;;;;5017416;28;20094;-67
2022/04/27 07:00:15;;;;;;;10.50;3.33;;;;;;;;;;5001135;28;20107;-67
2022/04/27 07:02:40;;;;;;;9.98;2.90;;;;;;;;;;5003235;28;20061;-67
2022/04/27 07:05:09;;;;;;;10.30;3.42;;;;;;;;;;5001782;28;20566;-66
2022/04/27 07:07:35;;;;;;;11.50;3.10;;;;;;;;;;5016986;28;20037;-67
2022/04/27 07:10:00;;;;;;;13.85;3.90;;;;;;;;;;5002273;28;20525;-67
2022/04/27 07:12:28;;;;;;;14.60;4.10;;;;;;;;;;5002647;28;20028;-67
2022/04/27 07:14:54;;;;;;;15.45;4.07;;;;;;;;;;5001710;28;20301;-67
2022/04/27 07:17:19;;;;;;;15.10;4.20;;;;;;;;;;5002952;28;20028;-69
2022/04/27 07:19:48;;;;;;;17.45;4.20;;;;;;;;;;5002090;28;20144;-67
2022/04/27 07:22:14;;;;;;;12.05;3.65;;;;;;;;;;5002739;28;20053;-67
2022/04/27 07:24:40;;;;;;;16.05;3.75;;;;;;;;;;5002422;28;20261;-67
2022/04/27 07:27:05;;;;;;;15.95;3.92;;;;;;;;;;5011285;28;20707;-68
2022/04/27 07:29:34;;;;;;;11.80;4.35;;;;;;;;;;5000658;28;20202;-67
2022/04/27 07:31:59;;;;;;;14.48;3.75;;;;;;;;;;5000689;28;20032;-68
2022/04/27 07:34:25;;;;;;;15.85;4.30;;;;;;;;;;4999916;28;20791;-67
2022/04/27 07:36:50;;;;;;;13.80;3.17;;;;;;;;;;5001620;28;20731;-67
2022/04/27 07:39:15;;;;;;;12.70;3.35;;;;;;;;;;5002039;28;20089;-68
2022/04/27 07:41:45;;;;;;;13.48;3.35;;;;;;;;;;4999825;28;20713;-68
2022/04/27 07:44:12;;;;;;;15.00;3.92;;;;;;;;;;5011225;28;20025;-69
2022/04/27 07:46:40;;;;;;;19.48;4.32;;;;;;;;;;5001871;28;20044;-68
2022/04/27 07:49:06;;;;;;;14.50;4.22;;;;;;;;;;5001011;28;20175;-68
2022/04/27 07:51:33;;;;;;;15.00;4.25;;;;;;;;;;5001885;28;20049;-68
2022/04/27 07:53:58;;;;;;;12.15;3.25;;;;;;;;;;5016206;28;20151;-68
2022/04/27 07:56:24;;;;;;;14.65;3.65;;;;;;;;;;5002391;28;20027;-68
2022/04/27 07:58:51;;;;;;;16.52;3.78;;;;;;;;;;5001820;28;20128;-68
2022/04/27 08:01:17;;;;;;;17.80;3.55;;;;;;;;;;5000619;28;20091;-68
2022/04/27 08:03:42;;;;;;;14.95;3.53;;;;;;;;;;5001586;28;20218;-69
2022/04/27 08:06:10;;;;;;;16.02;3.55;;;;;;;;;;5001781;28;20106;-69
2022/04/27 08:08:35;;;;;;;14.45;3.20;;;;;;;;;;4999836;28;20095;-68
2022/04/27 08:11:01;;;;;;;14.68;3.08;;;;;;;;;;5002054;28;20625;-67
2022/04/27 08:13:26;;;;;;;11.82;3.10;;;;;;;;;;5002437;28;20142;-67
2022/04/27 08:15:51;;;;;;;13.13;3.17;;;;;;;;;;5001489;28;20022;-67
2022/04/27 08:18:20;;;;;;;14.60;3.08;;;;;;;;;;5001847;28;20056;-67
2022/04/27 08:23:34;;;;;;;14.73;3.15;;;;;;;;;;5002104;28;20228;-67
2022/04/27 08:26:00;;;;;;;11.45;2.75;;;;;;;;;;5001425;28;20172;-68
2022/04/27 08:28:31;;;;;;;12.68;3.13;;;;;;;;;;5001469;28;20124;-68
2022/04/27 08:30:56;;;;;;;13.30;3.08;;;;;;;;;;5002065;28;20033;-67
2022/04/27 08:33:22;;;;;;;13.00;3.10;;;;;;;;;;5001594;28;20344;-67
2022/04/27 08:35:48;;;;;;;11.38;3.35;;;;;;;;;;5000349;28;20073;-68
2022/04/27 08:38:14;;;;;;;15.00;3.50;;;;;;;;;;4999618;28;20482;-66
2022/04/27 08:40:42;;;;;;;16.83;3.30;;;;;;;;;;5002322;28;20198;-66
2022/04/27 08:43:11;;;;;;;15.55;3.60;;;;;;;;;;5002502;28;20037;-67
2022/04/27 08:45:41;;;;;;;11.25;2.85;;;;;;;;;;5005752;28;20029;-66
2022/04/27 08:48:07;;;;;;;12.23;2.88;;;;;;;;;;5004582;28;20134;-68
2022/04/27 08:50:37;;;;;;;15.88;2.78;;;;;;;;;;5005055;28;20080;-66
2022/04/27 08:53:03;;;;;;;15.40;2.85;;;;;;;;;;5002778;28;20378;-66
2022/04/27 08:55:28;;;;;;;15.20;3.00;;;;;;;;;;5005050;28;20141;-68
2022/04/27 08:58:05;;;;;;;15.23;2.58;;;;;;;;;;5003318;28;20053;-69
2022/04/27 09:00:32;;;;;;;11.05;2.38;;;;;;;;;;5005339;28;20048;-68
2022/04/27 09:03:18;;;;;;;16.48;2.63;;;;;;;;;;5004948;28;21183;-66
2022/04/27 09:05:53;;;;;;;12.70;2.72;;;;;;;;;;5019678;28;20139;-66
2022/04/27 09:08:19;;;;;;;10.48;2.33;;;;;;;;;;5005125;28;20894;-67
2022/04/27 09:10:45;;;;;;;10.15;2.25;;;;;;;;;;5004792;28;20033;-68
2022/04/27 09:13:10;;;;;;;8.05;2.10;;;;;;;;;;5008381;28;20525;-67
2022/04/27 09:15:36;;;;;;;11.05;2.60;;;;;;;;;;5019263;28;20038;-67
2022/04/27 09:20:59;;;;;;;13.00;2.58;;;;;;;;;;5004308;28;20024;-67
2022/04/27 09:23:29;;;;;;;13.30;2.63;;;;;;;;;;5004477;28;20156;-67
2022/04/27 09:25:55;;;;;;;12.63;2.90;;;;;;;;;;5004088;28;20396;-67
2022/04/27 09:28:30;;;;;;;10.95;2.63;;;;;;;;;;5004804;28;20763;-67
2022/04/27 09:30:58;;;;;;;12.52;2.70;;;;;;;;;;5004784;28;20908;-67
2022/04/27 09:33:31;;;;;;;8.35;2.05;;;;;;;;;;5004628;28;20041;-67
2022/04/27 09:35:56;;;;;;;12.77;2.63;;;;;;;;;;5004133;28;20800;-67
2022/04/27 09:38:22;;;;;;;12.88;2.40;;;;;;;;;;5004896;28;20356;-69
2022/04/27 09:40:54;;;;;;;13.30;2.55;;;;;;;;;;5002721;28;20025;-68
2022/04/27 09:43:40;;;;;;;11.40;2.22;;;;;;;;;;5003980;28;20681;-67
2022/04/27 09:46:26;;;;;;;11.10;2.90;;;;;;;;;;5004153;28;20324;-66
2022/04/27 09:49:21;;;;;;;9.93;2.17;;;;;;;;;;5004196;28;20279;-67
2022/04/27 09:51:47;;;;;;;10.70;2.42;;;;;;;;;;5004123;28;20409;-67
2022/04/27 09:54:17;;;;;;;11.77;2.25;;;;;;;;;;5018473;28;20731;-66
2022/04/27 09:56:43;;;;;;;12.52;2.05;;;;;;;;;;5004172;28;20029;-67
2022/04/27 09:59:10;;;;;;;14.65;2.03;;;;;;;;;;5018558;28;20021;-67
2022/04/27 10:01:36;;;;;;;12.15;2.40;;;;;;;;;;5004827;28;20405;-67
2022/04/27 10:04:04;;;;;;;15.93;2.67;;;;;;;;;;5003246;28;20020;-67
2022/04/27 10:06:30;;;;;;;11.82;2.83;;;;;;;;;;5004220;28;20125;-66
2022/04/27 10:08:57;;;;;;;11.35;2.25;;;;;;;;;;5001683;28;20395;-67
2022/04/27 10:11:23;;;;;;;12.48;2.15;;;;;;;;;;5003835;28;20309;-67
2022/04/27 10:13:48;;;;;;;12.20;2.35;;;;;;;;;;5003748;28;20040;-64
2022/04/27 10:16:16;;;;;;;14.15;2.53;;;;;;;;;;5004460;28;20033;-65
2022/04/27 10:18:44;;;;;;;16.55;2.67;;;;;;;;;;5003865;28;20486;-65
2022/04/27 10:21:14;;;;;;;16.15;2.25;;;;;;;;;;5006772;28;20470;-67
2022/04/27 10:23:43;;;;;;;13.68;2.40;;;;;;;;;;5003688;28;20834;-67
2022/04/27 10:26:12;;;;;;;10.77;2.30;;;;;;;;;;5003128;28;20155;-67
2022/04/27 10:28:49;;;;;;;12.55;2.65;;;;;;;;;;5003884;28;20013;-67
2022/04/27 10:31:34;;;;;;;15.35;3.03;;;;;;;;;;5002994;28;20052;-67
2022/04/27 10:34:10;;;;;;;14.57;2.95;;;;;;;;;;5003241;28;20040;-67
2022/04/27 10:36:37;;;;;;;12.43;2.38;;;;;;;;;;5017445;28;20142;-67
2022/04/27 10:39:09;;;;;;;12.40;2.33;;;;;;;;;;5003738;28;20040;-66
2022/04/27 10:41:34;;;;;;;14.45;2.40;;;;;;;;;;5017021;28;20277;-66
2022/04/27 10:43:59;;;;;;;10.38;2.28;;;;;;;;;;5003098;28;20881;-66
2022/04/27 10:46:38;;;;;;;12.80;2.50;;;;;;;;;;5003219;28;20048;-65
2022/04/27 10:49:22;;;;;;;14.95;2.67;;;;;;;;;;5002545;28;20036;-66
2022/04/27 10:52:07;;;;;;;13.65;2.53;;;;;;;;;;5003165;28;20048;-66
2022/04/27 10:54:37;;;;;;;8.48;2.13;;;;;;;;;;5003101;28;20271;-66
2022/04/27 10:57:14;;;;;;;8.90;2.00;;;;;;;;;;5002932;28;20754;-66
2022/04/27 10:59:49;;;;;;;12.05;2.35;;;;;;;;;;5003161;28;20036;-66
2022/04/27 11:02:33;;;;;;;9.45;2.17;;;;;;;;;;5002466;28;20361;-66
2022/04/27 11:05:03;;;;;;;10.63;2.85;;;;;;;;;;5002163;28;20102;-64
2022/04/27 11:07:28;;;;;;;11.93;2.60;;;;;;;;;;5017247;28;20174;-65
2022/04/27 11:09:54;;;;;;;10.93;2.30;;;;;;;;;;5001721;28;20440;-64
2022/04/27 11:12:19;;;;;;;10.25;2.30;;;;;;;;;;5005972;28;20786;-64
2022/04/27 11:14:48;;;;;;;9.98;2.20;;;;;;;;;;5002821;28;20393;-65
2022/04/27 11:17:25;;;;;;;12.13;2.65;;;;;;;;;;5002001;28;20051;-64
2022/04/27 11:19:50;;;;;;;8.70;2.05;;;;;;;;;;5001747;28;20029;-64
2022/04/27 11:22:16;;;;;;;13.30;2.55;;;;;;;;;;5002658;28;20056;-64
2022/04/27 11:24:44;;;;;;;8.73;2.17;;;;;;;;;;5001819;28;20066;-64
2022/04/27 11:27:10;;;;;;;10.32;2.28;;;;;;;;;;5002461;28;20117;-64
2022/04/27 11:29:37;;;;;;;10.82;1.92;;;;;;;;;;5002018;28;20033;-64
2022/04/27 11:32:06;;;;;;;16.17;2.92;;;;;;;;;;5001412;28;20484;-66
2022/04/27 11:34:33;;;;;;;12.55;2.83;;;;;;;;;;5001624;28;20033;-66
2022/04/27 11:37:12;;;;;;;10.20;2.53;;;;;;;;;;5000227;28;20600;-65
2022/04/27 11:39:37;;;;;;;12.65;2.28;;;;;;;;;;5002287;28;20037;-66
2022/04/27 11:42:02;;;;;;;9.82;2.20;;;;;;;;;;5002206;28;20029;-66
2022/04/27 11:44:29;;;;;;;12.57;2.85;;;;;;;;;;5002316;28;20396;-66
2022/04/27 11:46:55;;;;;;;8.85;2.20;;;;;;;;;;4999322;28;20033;-67
2022/04/27 11:49:21;;;;;;;9.10;2.25;;;;;;;;;;5001818;28;20021;-65
2022/04/27 11:51:47;;;;;;;9.85;2.28;;;;;;;;;;5001906;28;20194;-67
2022/04/27 11:54:29;;;;;;;9.30;2.00;;;;;;;;;;5001847;28;20317;-65
2022/04/27 11:56:56;;;;;;;10.93;2.40;;;;;;;;;;5001936;28;20024;-66
2022/04/27 11:59:21;;;;;;;9.63;2.08;;;;;;;;;;5000022;28;20021;-66
2022/04/27 12:01:50;;;;;;;11.27;2.20;;;;;;;;;;5001982;28;22070;-66
2022/04/27 12:04:16;;;;;;;10.32;2.05;;;;;;;;;;5001353;28;20028;-67
2022/04/27 12:06:42;;;;;;;11.45;2.45;;;;;;;;;;5002677;28;20087;-66
2022/04/27 12:09:14;;;;;;;9.82;2.25;;;;;;;;;;5001388;28;20044;-66
2022/04/27 12:11:39;;;;;;;10.27;2.50;;;;;;;;;;5002476;28;20738;-66
2022/04/27 12:14:07;;;;;;;10.77;2.20;;;;;;;;;;4999434;28;20037;-64
2022/04/27 12:16:32;;;;;;;9.27;2.25;;;;;;;;;;5001336;28;20090;-65
2022/04/27 12:18:59;;;;;;;10.35;2.22;;;;;;;;;;5003861;28;20032;-65
2022/04/27 12:21:24;;;;;;;11.48;2.13;;;;;;;;;;5003985;28;20133;-64
2022/04/27 12:23:50;;;;;;;10.10;2.15;;;;;;;;;;5005429;28;20033;-64
2022/04/27 12:26:16;;;;;;;9.13;2.22;;;;;;;;;;5003251;28;20025;-65
2022/04/27 12:28:49;;;;;;;9.80;2.35;;;;;;;;;;5015089;28;20063;-65
2022/04/27 12:31:19;;;;;;;11.13;2.17;;;;;;;;;;5004812;28;20029;-65
2022/04/27 12:33:47;;;;;;;6.55;1.67;;;;;;;;;;5006156;28;20312;-66
2022/04/27 12:39:23;;;;;;;10.52;1.90;;;;;;;;;;5005518;28;20029;-65
2022/04/27 12:41:50;;;;;;;9.73;2.67;;;;;;;;;;5007244;28;20034;-66
2022/04/27 12:44:25;;;;;;;12.48;2.33;;;;;;;;;;5003943;28;20441;-66
2022/04/27 12:47:00;;;;;;;10.38;2.05;;;;;;;;;;5005330;28;20132;-67
2022/04/27 12:49:30;;;;;;;9.88;2.35;;;;;;;;;;5004836;28;20644;-67
2022/04/27 12:51:57;;;;;;;8.82;2.22;;;;;;;;;;5005001;28;20332;-67
2022/04/27 12:54:35;;;;;;;8.43;1.98;;;;;;;;;;5003307;28;20589;-67
2022/04/27 12:57:01;;;;;;;9.60;2.00;;;;;;;;;;5019601;28;20151;-66
2022/04/27 12:59:26;;;;;;;7.13;2.00;;;;;;;;;;5004849;28;20351;-66
2022/04/27 13:02:00;;;;;;;9.73;2.03;;;;;;;;;;5003451;28;20301;-68
2022/04/27 13:04:27;;;;;;;12.27;2.05;;;;;;;;;;5003775;28;20031;-68
2022/04/27 13:06:53;;;;;;;8.52;2.40;;;;;;;;;;5004981;28;20033;-66
2022/04/27 13:12:07;;;;;;;8.50;2.13;;;;;;;;;;5004920;28;20598;-67
2022/04/27 13:14:32;;;;;;;8.70;2.13;;;;;;;;;;5002663;28;20028;-68
2022/04/27 13:17:00;;;;;;;8.90;1.92;;;;;;;;;;5004607;28;20060;-67
2022/04/27 13:19:26;;;;;;;9.65;2.50;;;;;;;;;;5004264;28;20284;-67
2022/04/27 13:21:51;;;;;;;8.88;2.40;;;;;;;;;;5005112;28;20085;-66
2022/04/27 13:24:19;;;;;;;8.32;2.17;;;;;;;;;;5004169;28;20086;-67
2022/04/27 13:26:47;;;;;;;12.30;2.45;;;;;;;;;;5004779;28;20155;-65
2022/04/27 13:29:12;;;;;;;10.68;2.15;;;;;;;;;;5004772;28;20509;-66
2022/04/27 13:31:38;;;;;;;12.10;2.60;;;;;;;;;;5004428;28;21876;-66
2022/04/27 13:34:03;;;;;;;8.75;2.50;;;;;;;;;;5004221;28;20199;-67
2022/04/27 13:36:28;;;;;;;10.20;2.08;;;;;;;;;;5001898;28;20263;-67
2022/04/27 13:38:54;;;;;;;10.45;2.08;;;;;;;;;;5003623;28;20124;-67
2022/04/27 13:41:19;;;;;;;10.05;2.13;;;;;;;;;;5004036;28;20029;-68
2022/04/27 13:43:45;;;;;;;8.73;2.10;;;;;;;;;;5004726;28;20061;-67
2022/04/27 13:46:10;;;;;;;9.20;2.17;;;;;;;;;;5003902;28;20059;-67
2022/04/27 13:48:36;;;;;;;7.93;1.75;;;;;;;;;;5004885;28;20029;-68
2022/04/27 13:51:01;;;;;;;11.45;2.88;;;;;;;;;;5003804;28;20028;-67
2022/04/27 13:53:30;;;;;;;12.13;2.38;;;;;;;;;;5001824;28;20360;-67
2022/04/27 13:55:55;;;;;;;11.45;2.50;;;;;;;;;;5004435;28;20040;-66
2022/04/27 13:58:23;;;;;;;11.77;2.65;;;;;;;;;;5003446;28;20334;-65
2022/04/27 14:00:50;;;;;;;8.15;2.10;;;;;;;;;;5002671;28;20583;-68
2022/04/27 14:03:16;;;;;;;10.38;2.17;;;;;;;;;;5003641;28;20025;-66
2022/04/27 14:05:41;;;;;;;10.32;2.13;;;;;;;;;;5003377;28;20073;-68
2022/04/27 14:08:10;;;;;;;8.25;2.22;;;;;;;;;;5003828;28;20343;-65
2022/04/27 14:10:35;;;;;;;16.92;2.75;;;;;;;;;;5004125;28;20171;-67
2022/04/27 14:13:11;;;;;;;15.85;2.47;;;;;;;;;;5003740;28;20187;-67
2022/04/27 14:15:36;;;;;;;9.98;2.33;;;;;;;;;;5012744;28;20230;-68
2022/04/27 14:18:12;;;;;;;11.90;2.30;;;;;;;;;;5004230;28;20032;-68
2022/04/27 14:20:39;;;;;;;12.35;2.20;;;;;;;;;;5017899;28;20107;-67
2022/04/27 14:23:09;;;;;;;8.02;2.20;;;;;;;;;;5003622;28;20579;-67
2022/04/27 14:25:35;;;;;;;12.80;2.30;;;;;;;;;;5002620;28;20025;-66
2022/04/27 14:28:00;;;;;;;10.13;2.10;;;;;;;;;;5003839;28;20301;-68
2022/04/27 14:30:26;;;;;;;13.15;2.53;;;;;;;;;;5001348;28;20121;-66
2022/04/27 14:32:51;;;;;;;13.52;2.47;;;;;;;;;;5003637;28;20750;-66
2022/04/27 14:35:17;;;;;;;13.27;2.20;;;;;;;;;;5002753;28;20103;-66
2022/04/27 14:37:43;;;;;;;10.98;2.60;;;;;;;;;;5003536;28;20159;-68
2022/04/27 14:40:09;;;;;;;12.15;2.40;;;;;;;;;;5002879;28;20563;-66
2022/04/27 14:42:34;;;;;;;10.70;2.17;;;;;;;;;;5002803;28;20378;-66
2022/04/27 14:44:59;;;;;;;9.15;2.10;;;;;;;;;;5003320;28;20125;-68
2022/04/27 14:47:25;;;;;;;10.43;2.15;;;;;;;;;;5002712;28;20032;-65
2022/04/27 14:49:54;;;;;;;10.65;2.40;;;;;;;;;;5002711;28;20276;-68
2022/04/27 14:52:22;;;;;;;12.07;2.20;;;;;;;;;;5002897;28;20021;-67
2022/04/27 14:54:48;;;;;;;9.52;2.20;;;;;;;;;;5002925;28;20453;-67
2022/04/27 14:57:13;;;;;;;12.50;2.50;;;;;;;;;;5003230;28;20059;-67
2022/04/27 14:59:39;;;;;;;6.03;1.80;;;;;;;;;;5003604;28;20142;-68
2022/04/27 15:02:07;;;;;;;9.07;2.28;;;;;;;;;;5003118;28;20309;-66
2022/04/27 15:04:34;;;;;;;12.55;2.28;;;;;;;;;;5001495;28;20061;-66